Time;durP1;ratioP1;P1;durP2;ratioP2;P2;SDS_P1;SDS_P2;PMS_P1;PMS_P2;Temp;Humidity;BMP_temperature;BMP_pressure;BME280_temperature;BME280_humidity;BME280_pressure;Samples;Min_cycle;Max_cycle;Signal;HPM_P1;HPM_P2
2023/10/28 00:00:39;;;;;;;0.40;0.40;;;25.50;54.40;;;;;;5086306;28;20020;-72
2023/10/28 00:03:05;;;;;;;0.65;0.65;;;25.40;54.50;;;;;;5077735;28;20055;-73
2023/10/28 00:05:31;;;;;;;0.43;0.43;;;25.50;54.50;;;;;;5090872;28;20039;-73
2023/10/28 00:07:57;;;;;;;0.30;0.30;;;25.40;54.50;;;;;;5082723;28;20043;-73
2023/10/28 00:10:24;;;;;;;0.45;0.45;;;25.40;54.70;;;;;;5092077;28;20036;-73
2023/10/28 00:12:50;;;;;;;0.40;0.40;;;25.50;54.50;;;;;;5090793;28;20059;-73
2023/10/28 00:15:18;;;;;;;0.55;0.55;;;25.50;54.60;;;;;;5087240;28;20400;-73
2023/10/28 00:17:48;;;;;;;0.50;0.50;;;25.40;54.70;;;;;;5073141;28;20115;-72
2023/10/28 00:20:17;;;;;;;0.45;0.40;;;25.40;54.70;;;;;;5091760;28;20476;-73
2023/10/28 00:22:47;;;;;;;0.40;0.40;;;25.50;54.80;;;;;;5087710;28;20024;-72
2023/10/28 00:25:14;;;;;;;0.47;0.47;;;25.50;54.80;;;;;;5090585;28;20036;-73
2023/10/28 00:27:41;;;;;;;0.40;0.40;;;25.30;54.80;;;;;;5086174;28;20456;-73
2023/10/28 00:30:09;;;;;;;0.40;0.40;;;25.50;54.80;;;;;;5089729;28;20040;-73
2023/10/28 00:32:37;;;;;;;0.35;0.35;;;25.90;54.80;;;;;;5072638;28;20033;-72
2023/10/28 00:35:04;;;;;;;0.60;0.50;;;25.50;54.80;;;;;;5083017;28;20039;-73
2023/10/28 00:37:30;;;;;;;0.30;0.30;;;25.50;54.90;;;;;;5071679;28;20036;-72
2023/10/28 00:39:56;;;;;;;1.33;0.57;;;25.40;54.90;;;;;;5072610;28;20116;-73
2023/10/28 00:42:23;;;;;;;0.40;0.40;;;25.50;55.00;;;;;;5077246;28;20390;-73
2023/10/28 00:44:50;;;;;;;0.40;0.40;;;25.50;54.90;;;;;;5079411;28;20390;-73
2023/10/28 00:47:17;;;;;;;0.60;0.60;;;25.40;55.00;;;;;;5087827;28;20489;-72
2023/10/28 00:49:44;;;;;;;0.40;0.40;;;25.40;55.00;;;;;;5077012;28;20071;-73
2023/10/28 00:52:11;;;;;;;0.35;0.35;;;25.40;55.00;;;;;;5089721;28;20055;-73
2023/10/28 00:54:37;;;;;;;0.30;0.30;;;25.40;55.00;;;;;;5086085;28;20078;-72
2023/10/28 00:57:03;;;;;;;0.40;0.40;;;25.50;55.10;;;;;;5071321;28;20044;-73
2023/10/28 00:59:30;;;;;;;0.50;0.40;;;25.40;55.10;;;;;;5069677;28;20094;-73
2023/10/28 01:01:56;;;;;;;0.30;0.30;;;25.40;55.10;;;;;;5071400;28;20025;-72
2023/10/28 01:04:22;;;;;;;0.30;0.30;;;25.30;55.10;;;;;;5087010;28;20039;-72
2023/10/28 01:06:48;;;;;;;0.40;0.40;;;25.30;55.10;;;;;;5090448;28;20124;-73
2023/10/28 01:09:14;;;;;;;0.30;0.30;;;25.40;55.10;;;;;;5091346;28;20031;-72
2023/10/28 01:11:40;;;;;;;1.00;0.40;;;25.30;55.30;;;;;;5076624;28;20409;-73
2023/10/28 01:14:07;;;;;;;0.30;0.30;;;25.30;55.20;;;;;;5088840;28;20076;-73
2023/10/28 01:16:34;;;;;;;0.50;0.50;;;25.40;55.30;;;;;;5083065;28;20040;-73
2023/10/28 01:19:00;;;;;;;0.40;0.40;;;25.30;55.30;;;;;;5089167;28;20044;-73
2023/10/28 01:21:27;;;;;;;0.88;0.30;;;25.30;55.30;;;;;;5087552;28;20690;-73
2023/10/28 01:23:56;;;;;;;0.40;0.40;;;25.30;55.30;;;;;;5074307;28;20050;-73
2023/10/28 01:26:22;;;;;;;0.45;0.40;;;25.30;55.30;;;;;;5070941;28;20380;-72
2023/10/28 01:28:48;;;;;;;0.32;0.32;;;25.40;55.30;;;;;;5081883;28;20040;-72
2023/10/28 01:31:17;;;;;;;0.30;0.30;;;25.40;55.30;;;;;;5081688;28;20033;-73
2023/10/28 01:33:43;;;;;;;0.30;0.30;;;25.40;55.30;;;;;;5078097;28;20497;-73
2023/10/28 01:36:09;;;;;;;0.40;0.40;;;25.40;55.30;;;;;;5086150;28;20106;-73
2023/10/28 01:38:36;;;;;;;0.47;0.47;;;25.50;55.30;;;;;;5077128;28;20081;-72
2023/10/28 01:41:02;;;;;;;0.32;0.32;;;25.40;55.20;;;;;;5089944;28;20043;-73
2023/10/28 01:43:29;;;;;;;0.47;0.40;;;25.30;55.30;;;;;;5090655;28;20490;-72
2023/10/28 01:45:55;;;;;;;0.40;0.40;;;25.40;55.30;;;;;;5089131;28;20653;-74
2023/10/28 01:48:21;;;;;;;0.30;0.30;;;25.30;55.30;;;;;;5084713;28;20028;-73
2023/10/28 01:50:47;;;;;;;0.30;0.30;;;25.40;55.30;;;;;;5084026;28;20411;-72
2023/10/28 01:53:13;;;;;;;0.40;0.40;;;25.30;55.30;;;;;;5091671;28;20036;-73
2023/10/28 01:55:39;;;;;;;0.30;0.30;;;25.30;55.30;;;;;;5079491;28;20044;-73
2023/10/28 01:58:06;;;;;;;0.30;0.30;;;25.30;55.30;;;;;;5102558;28;20069;-72
2023/10/28 02:00:32;;;;;;;0.40;0.40;;;25.40;55.30;;;;;;5112877;27;20039;-73
2023/10/28 02:03:00;;;;;;;0.30;0.30;;;25.30;55.30;;;;;;5093708;28;20612;-72
2023/10/28 02:05:27;;;;;;;0.73;0.50;;;25.20;55.40;;;;;;5117953;27;20084;-73
2023/10/28 02:07:53;;;;;;;0.30;0.30;;;25.30;55.40;;;;;;5101318;28;20039;-72
2023/10/28 02:10:19;;;;;;;0.30;0.30;;;25.30;55.40;;;;;;5112141;28;20034;-73
2023/10/28 02:12:45;;;;;;;0.47;0.40;;;25.30;55.40;;;;;;5095081;28;20069;-73
2023/10/28 02:15:11;;;;;;;0.30;0.30;;;25.40;55.40;;;;;;5097469;28;20040;-73
2023/10/28 02:17:38;;;;;;;0.30;0.30;;;25.30;55.40;;;;;;5111049;28;20047;-73
2023/10/28 02:20:06;;;;;;;0.30;0.30;;;25.30;55.40;;;;;;5093650;28;20038;-71
2023/10/28 02:22:32;;;;;;;0.30;0.30;;;25.30;55.40;;;;;;5109779;28;20042;-73
2023/10/28 02:24:59;;;;;;;0.30;0.30;;;25.40;55.40;;;;;;5110104;28;20023;-73
2023/10/28 02:27:25;;;;;;;0.55;0.55;;;25.20;55.40;;;;;;5111840;28;20039;-73
2023/10/28 02:29:51;;;;;;;0.38;0.38;;;25.30;55.40;;;;;;5113199;27;20028;-73
2023/10/28 02:32:17;;;;;;;0.30;0.30;;;25.40;55.40;;;;;;5086637;28;20112;-73
2023/10/28 02:34:44;;;;;;;0.40;0.40;;;25.30;55.30;;;;;;5074667;28;20038;-72
2023/10/28 02:37:10;;;;;;;0.38;0.38;;;25.30;55.30;;;;;;5074217;28;20094;-72
2023/10/28 02:39:37;;;;;;;0.40;0.40;;;25.40;55.30;;;;;;5090036;28;20510;-73
2023/10/28 02:42:04;;;;;;;0.40;0.40;;;25.20;55.30;;;;;;5091565;28;20047;-72
2023/10/28 02:44:30;;;;;;;0.60;0.60;;;25.30;55.30;;;;;;5090227;28;20450;-73
2023/10/28 02:46:58;;;;;;;0.70;0.70;;;25.30;55.30;;;;;;5088911;28;20032;-73
2023/10/28 02:49:24;;;;;;;1.77;0.52;;;25.30;55.30;;;;;;5088456;28;20027;-72
2023/10/28 02:51:50;;;;;;;0.30;0.30;;;25.20;55.30;;;;;;5073678;28;20040;-72
2023/10/28 02:54:16;;;;;;;0.35;0.35;;;25.30;55.30;;;;;;5074418;28;20028;-72
2023/10/28 02:56:42;;;;;;;0.43;0.43;;;25.20;55.30;;;;;;5073524;28;20045;-73
2023/10/28 02:59:09;;;;;;;0.40;0.40;;;25.30;55.30;;;;;;5083898;28;20593;-73
2023/10/28 03:01:38;;;;;;;0.80;0.50;;;25.30;55.40;;;;;;5088332;28;20353;-73
2023/10/28 03:04:04;;;;;;;0.30;0.30;;;25.20;55.40;;;;;;5090895;28;20136;-74
2023/10/28 03:06:31;;;;;;;0.40;0.40;;;25.30;55.50;;;;;;5071658;28;20037;-72
2023/10/28 03:08:57;;;;;;;0.75;0.43;;;25.20;55.40;;;;;;5088649;28;20032;-73
2023/10/28 03:11:23;;;;;;;0.50;0.50;;;25.30;55.50;;;;;;5107819;28;20116;-72
2023/10/28 03:13:49;;;;;;;1.00;0.47;;;25.20;55.40;;;;;;5092876;28;20357;-73
2023/10/28 03:16:15;;;;;;;0.35;0.35;;;25.30;55.50;;;;;;5079924;28;20093;-72
2023/10/28 03:18:41;;;;;;;0.52;0.40;;;25.30;55.40;;;;;;5078175;28;20043;-72
2023/10/28 03:21:07;;;;;;;1.42;0.50;;;25.30;55.40;;;;;;5074279;28;20040;-72
2023/10/28 03:23:33;;;;;;;0.45;0.45;;;25.30;55.40;;;;;;5089728;28;20030;-71
2023/10/28 03:25:59;;;;;;;0.32;0.32;;;25.30;55.40;;;;;;5088016;28;20039;-73
2023/10/28 03:28:28;;;;;;;0.40;0.40;;;25.30;55.40;;;;;;5079146;28;20036;-73
2023/10/28 03:30:54;;;;;;;0.73;0.73;;;25.30;55.40;;;;;;5084225;28;20028;-71
2023/10/28 03:33:20;;;;;;;0.65;0.35;;;25.30;55.40;;;;;;5088902;28;20047;-73
2023/10/28 03:35:46;;;;;;;0.50;0.50;;;25.30;55.40;;;;;;5073091;28;20321;-73
2023/10/28 03:38:12;;;;;;;1.88;0.40;;;25.30;55.40;;;;;;5081027;28;20063;-73
2023/10/28 03:40:39;;;;;;;0.40;0.40;;;25.20;55.40;;;;;;5072749;28;20074;-72
2023/10/28 03:43:06;;;;;;;0.30;0.30;;;25.30;55.30;;;;;;5088804;28;20054;-73
2023/10/28 03:45:31;;;;;;;0.57;0.50;;;25.20;55.40;;;;;;5078392;28;20031;-73
2023/10/28 03:47:58;;;;;;;0.73;0.73;;;25.30;55.40;;;;;;5073794;28;20028;-73
2023/10/28 03:50:24;;;;;;;0.40;0.40;;;25.30;55.40;;;;;;5083783;28;20165;-72
2023/10/28 03:52:50;;;;;;;0.43;0.43;;;25.20;55.40;;;;;;5092732;28;20039;-72
2023/10/28 03:55:16;;;;;;;0.40;0.40;;;25.20;55.50;;;;;;5084475;28;20883;-72
2023/10/28 03:57:43;;;;;;;0.40;0.40;;;25.30;55.50;;;;;;5088321;28;20088;-72
2023/10/28 04:00:11;;;;;;;0.40;0.40;;;25.10;55.50;;;;;;5085300;28;20062;-71
2023/10/28 04:02:40;;;;;;;0.60;0.60;;;25.30;55.50;;;;;;5090500;28;20529;-73
2023/10/28 04:05:06;;;;;;;0.40;0.40;;;25.30;55.50;;;;;;5090021;28;20131;-72
2023/10/28 04:07:32;;;;;;;0.40;0.40;;;25.20;55.50;;;;;;5091780;28;20024;-72
2023/10/28 04:10:03;;;;;;;0.38;0.38;;;25.30;55.50;;;;;;5083668;28;20028;-72
2023/10/28 04:12:30;;;;;;;0.40;0.40;;;25.20;55.50;;;;;;5072031;28;20161;-72
2023/10/28 04:14:57;;;;;;;0.38;0.38;;;25.20;55.50;;;;;;5081775;28;20036;-73
2023/10/28 04:17:24;;;;;;;0.40;0.40;;;25.20;55.50;;;;;;5083441;28;20055;-72
2023/10/28 04:19:50;;;;;;;0.50;0.50;;;25.40;55.50;;;;;;5077701;28;20423;-73
2023/10/28 04:22:16;;;;;;;0.32;0.32;;;25.30;55.40;;;;;;5089409;28;20029;-72
2023/10/28 04:24:42;;;;;;;0.55;0.45;;;25.20;55.40;;;;;;5075817;28;20051;-71
2023/10/28 04:27:08;;;;;;;0.60;0.50;;;25.30;55.40;;;;;;5091664;28;20042;-73
2023/10/28 04:29:34;;;;;;;0.40;0.40;;;25.30;55.40;;;;;;5087435;28;20028;-73
2023/10/28 04:32:00;;;;;;;0.40;0.40;;;25.20;55.40;;;;;;5076139;28;20769;-72
2023/10/28 04:34:26;;;;;;;0.40;0.40;;;25.20;55.40;;;;;;5085562;28;20043;-73
2023/10/28 04:36:53;;;;;;;0.40;0.40;;;25.30;55.40;;;;;;5073780;28;20032;-72
2023/10/28 04:39:19;;;;;;;0.43;0.43;;;25.10;55.40;;;;;;5071499;28;20119;-72
2023/10/28 04:41:44;;;;;;;0.35;0.35;;;25.20;55.50;;;;;;5071870;28;20120;-73
2023/10/28 04:44:13;;;;;;;0.30;0.30;;;25.20;55.50;;;;;;5070964;28;20040;-73
2023/10/28 04:46:40;;;;;;;1.00;0.73;;;25.20;55.50;;;;;;5084293;28;20035;-73
2023/10/28 04:49:06;;;;;;;0.85;0.40;;;25.30;55.60;;;;;;5072959;28;20429;-72
2023/10/28 04:51:33;;;;;;;0.60;0.60;;;25.10;55.60;;;;;;5085285;28;20081;-73
2023/10/28 04:54:00;;;;;;;0.52;0.52;;;25.20;55.60;;;;;;5080789;28;20029;-73
2023/10/28 04:56:27;;;;;;;0.68;0.55;;;25.20;55.60;;;;;;5072307;28;20029;-73
2023/10/28 04:58:53;;;;;;;0.50;0.50;;;25.20;55.70;;;;;;5076405;28;20102;-73
2023/10/28 05:01:19;;;;;;;0.82;0.80;;;25.30;55.70;;;;;;5087667;28;20062;-72
2023/10/28 05:03:45;;;;;;;0.60;0.60;;;25.30;55.70;;;;;;5091540;28;20093;-73
2023/10/28 05:06:14;;;;;;;1.20;0.60;;;25.30;55.70;;;;;;5086408;28;20047;-73
2023/10/28 05:08:40;;;;;;;0.55;0.55;;;25.20;55.70;;;;;;5091423;28;20105;-73
2023/10/28 05:11:08;;;;;;;0.50;0.50;;;25.30;55.70;;;;;;5085102;28;20114;-72
2023/10/28 05:13:34;;;;;;;2.83;0.63;;;25.30;55.60;;;;;;5091373;28;20052;-73
2023/10/28 05:16:01;;;;;;;0.75;0.75;;;25.30;55.60;;;;;;5089817;28;20090;-72
2023/10/28 05:18:27;;;;;;;0.60;0.50;;;25.30;55.60;;;;;;5086323;28;20057;-73
2023/10/28 05:20:53;;;;;;;2.05;0.65;;;25.20;55.60;;;;;;5080929;28;20467;-73
2023/10/28 05:23:20;;;;;;;0.80;0.80;;;25.20;55.50;;;;;;5091660;28;20031;-72
2023/10/28 05:25:46;;;;;;;1.65;0.60;;;25.20;55.50;;;;;;5072077;28;20043;-70
2023/10/28 05:28:12;;;;;;;0.65;0.60;;;25.30;55.50;;;;;;5088776;28;20169;-72
2023/10/28 05:30:38;;;;;;;0.70;0.70;;;25.20;55.40;;;;;;5081559;28;20444;-72
2023/10/28 05:33:04;;;;;;;1.30;0.70;;;25.20;55.50;;;;;;5073815;28;20029;-72
2023/10/28 05:35:30;;;;;;;1.92;0.75;;;25.30;55.60;;;;;;5088711;28;20443;-72
2023/10/28 05:37:58;;;;;;;1.08;0.50;;;25.10;55.60;;;;;;5090237;28;20511;-71
2023/10/28 05:40:24;;;;;;;0.73;0.73;;;25.10;55.40;;;;;;5088547;28;20154;-71
2023/10/28 05:42:49;;;;;;;0.20;0.20;;;25.20;54.00;;;;;;5089551;28;20099;-71
2023/10/28 05:45:15;;;;;;;0.45;0.40;;;25.30;53.10;;;;;;5088647;28;20445;-69
2023/10/28 05:47:42;;;;;;;0.90;0.47;;;25.40;53.80;;;;;;5086493;28;20478;-71
2023/10/28 05:50:08;;;;;;;1.08;0.47;;;25.30;52.10;;;;;;5085424;28;20063;-71
2023/10/28 05:52:34;;;;;;;0.65;0.65;;;25.30;55.10;;;;;;5088718;28;20036;-71
2023/10/28 05:55:01;;;;;;;1.20;1.10;;;25.50;52.50;;;;;;5088761;28;20047;-71
2023/10/28 05:57:27;;;;;;;2.13;2.03;;;25.50;53.50;;;;;;5085186;28;20408;-71
2023/10/28 05:59:53;;;;;;;9.35;8.32;;;25.50;52.70;;;;;;5089924;28;20024;-71
2023/10/28 06:02:19;;;;;;;2.00;1.65;;;25.60;53.90;;;;;;5086184;28;20036;-72
2023/10/28 06:04:45;;;;;;;0.95;0.90;;;25.60;52.20;;;;;;5089185;28;20084;-72
2023/10/28 06:07:11;;;;;;;19.92;14.77;;;25.60;54.80;;;;;;5089034;28;20028;-72
2023/10/28 06:09:37;;;;;;;13.25;10.90;;;25.60;54.70;;;;;;5080700;28;20021;-71
2023/10/28 06:12:04;;;;;;;2.53;2.10;;;25.70;55.60;;;;;;5071761;28;20036;-71
2023/10/28 06:14:30;;;;;;;1.27;0.93;;;25.70;53.70;;;;;;5070946;28;20061;-70
2023/10/28 06:16:57;;;;;;;3.60;1.02;;;25.70;51.90;;;;;;5076213;28;20032;-73
2023/10/28 06:19:23;;;;;;;1.92;1.08;;;25.60;54.10;;;;;;5071496;28;20032;-71
2023/10/28 06:21:51;;;;;;;2.22;1.33;;;25.80;55.20;;;;;;5072529;28;20036;-71
2023/10/28 06:24:18;;;;;;;3.45;0.90;;;25.70;54.80;;;;;;5083447;28;20460;-72
2023/10/28 06:26:47;;;;;;;2.47;1.58;;;25.70;54.50;;;;;;5088822;28;20162;-68
2023/10/28 06:29:13;;;;;;;2.85;1.48;;;25.70;54.70;;;;;;5079423;28;20060;-71
2023/10/28 06:31:40;;;;;;;5.78;1.25;;;25.70;54.50;;;;;;5078665;28;20105;-72
2023/10/28 06:34:06;;;;;;;12.73;2.97;;;25.80;54.70;;;;;;5084915;28;20476;-69
2023/10/28 06:36:33;;;;;;;4.00;1.40;;;26.00;53.20;;;;;;5070215;28;20652;-71
2023/10/28 06:38:59;;;;;;;5.07;0.95;;;26.00;52.80;;;;;;5077636;28;20054;-72
2023/10/28 06:41:25;;;;;;;1.58;1.30;;;26.00;52.20;;;;;;5082455;28;20480;-72
2023/10/28 06:43:55;;;;;;;3.65;1.20;;;26.00;51.30;;;;;;5094016;28;20078;-71
2023/10/28 06:46:21;;;;;;;1.35;1.02;;;26.10;48.90;;;;;;5080267;28;20424;-72
2023/10/28 06:48:47;;;;;;;5.03;1.33;;;25.90;48.40;;;;;;5079355;28;20024;-72
2023/10/28 06:51:13;;;;;;;2.33;0.90;;;25.90;50.70;;;;;;5085429;28;20036;-71
2023/10/28 06:53:42;;;;;;;1.00;0.65;;;25.90;51.30;;;;;;5088902;28;20036;-72
2023/10/28 06:56:08;;;;;;;3.08;1.30;;;26.00;52.30;;;;;;5073114;28;20781;-73
2023/10/28 06:58:34;;;;;;;2.70;0.90;;;26.00;52.80;;;;;;5085342;28;20066;-73
2023/10/28 07:01:00;;;;;;;2.92;0.80;;;26.10;53.00;;;;;;5075962;28;20044;-73
2023/10/28 07:03:27;;;;;;;2.28;0.90;;;26.00;53.10;;;;;;5086773;28;20099;-71
2023/10/28 07:05:54;;;;;;;3.15;0.90;;;26.00;53.20;;;;;;5085925;28;20047;-69
2023/10/28 07:08:20;;;;;;;6.57;1.20;;;26.00;53.50;;;;;;5094908;28;20032;-69
2023/10/28 07:10:47;;;;;;;3.65;1.00;;;26.10;53.90;;;;;;5092482;28;20032;-70
2023/10/28 07:13:13;;;;;;;1.85;0.85;;;26.10;53.70;;;;;;5092610;28;20603;-70
2023/10/28 07:15:41;;;;;;;0.50;0.50;;;25.90;54.70;;;;;;5093694;28;20036;-70
2023/10/28 07:18:08;;;;;;;3.63;0.90;;;26.10;54.60;;;;;;5074770;28;20032;-74
2023/10/28 07:20:34;;;;;;;3.42;1.00;;;26.10;54.30;;;;;;5073768;28;20814;-71
2023/10/28 07:23:02;;;;;;;3.20;1.10;;;26.00;53.80;;;;;;5073867;28;20110;-66
2023/10/28 07:25:29;;;;;;;1.95;1.08;;;26.10;53.40;;;;;;5090644;28;20044;-66
2023/10/28 07:27:55;;;;;;;5.68;1.33;;;26.10;53.00;;;;;;5087311;28;20032;-66
2023/10/28 07:30:22;;;;;;;2.60;1.27;;;26.10;52.90;;;;;;5086486;28;20145;-66
2023/10/28 07:32:49;;;;;;;1.83;1.13;;;26.10;52.70;;;;;;5090908;28;20089;-67
2023/10/28 07:35:16;;;;;;;1.95;1.00;;;26.10;52.60;;;;;;5087697;28;20028;-67
2023/10/28 07:37:42;;;;;;;2.78;1.13;;;26.10;52.50;;;;;;5086575;28;20040;-67
2023/10/28 07:40:12;;;;;;;3.92;1.50;;;26.10;52.60;;;;;;5092254;28;20043;-69
2023/10/28 07:42:38;;;;;;;1.52;0.85;;;26.10;52.60;;;;;;5089268;28;20395;-68
2023/10/28 07:45:04;;;;;;;0.88;0.88;;;26.00;52.60;;;;;;5073125;28;20048;-66
2023/10/28 07:47:33;;;;;;;2.85;1.08;;;26.20;52.70;;;;;;5082213;28;20146;-67
2023/10/28 07:49:59;;;;;;;1.23;1.13;;;26.20;52.70;;;;;;5080838;28;20603;-68
2023/10/28 07:52:26;;;;;;;8.00;1.65;;;26.00;52.80;;;;;;5080568;28;20760;-66
2023/10/28 07:54:52;;;;;;;5.20;1.13;;;26.10;52.80;;;;;;5086137;28;20379;-69
2023/10/28 07:57:18;;;;;;;4.28;1.33;;;26.20;52.60;;;;;;5089467;28;20142;-68
2023/10/28 07:59:44;;;;;;;4.07;0.95;;;26.10;52.60;;;;;;5090473;28;20039;-67
2023/10/28 08:02:11;;;;;;;0.80;0.75;;;26.10;52.40;;;;;;5083413;28;20647;-68
2023/10/28 08:04:37;;;;;;;0.85;0.80;;;26.00;52.70;;;;;;5077127;28;20028;-69
2023/10/28 08:07:03;;;;;;;1.67;1.00;;;26.20;52.60;;;;;;5099704;28;20067;-67
2023/10/28 08:09:29;;;;;;;0.70;0.60;;;26.10;52.90;;;;;;5079646;28;20091;-66
2023/10/28 08:11:55;;;;;;;0.82;0.77;;;26.10;53.10;;;;;;5077830;28;20024;-65
2023/10/28 08:14:21;;;;;;;2.85;0.80;;;26.10;53.10;;;;;;5086670;28;20071;-68
2023/10/28 08:16:47;;;;;;;1.02;1.00;;;26.10;53.30;;;;;;5081914;28;20029;-67
2023/10/28 08:19:13;;;;;;;1.33;0.70;;;26.30;53.30;;;;;;5073504;28;20531;-64
2023/10/28 08:21:40;;;;;;;2.40;0.75;;;26.10;53.20;;;;;;5072834;28;20036;-65
2023/10/28 08:24:10;;;;;;;1.00;0.88;;;26.10;53.10;;;;;;5102385;28;20441;-66
2023/10/28 08:26:37;;;;;;;1.75;0.88;;;26.00;53.00;;;;;;5091291;28;20136;-66
2023/10/28 08:29:03;;;;;;;4.43;1.27;;;26.20;53.00;;;;;;5090727;28;20044;-67
2023/10/28 08:31:29;;;;;;;3.55;1.00;;;26.10;52.90;;;;;;5085987;28;20073;-67
2023/10/28 08:33:55;;;;;;;1.10;1.00;;;26.10;52.70;;;;;;5090264;28;20048;-66
2023/10/28 08:36:21;;;;;;;4.72;1.00;;;26.00;52.60;;;;;;5089489;28;20040;-67
2023/10/28 08:38:47;;;;;;;2.35;0.80;;;26.00;52.60;;;;;;5092002;28;20043;-67
2023/10/28 08:41:16;;;;;;;0.90;0.90;;;26.10;52.60;;;;;;5091605;28;20040;-66
2023/10/28 08:43:42;;;;;;;0.90;0.90;;;26.00;52.30;;;;;;5090226;28;20415;-67
2023/10/28 08:46:11;;;;;;;2.63;0.80;;;26.00;52.00;;;;;;5091876;28;20036;-66
2023/10/28 08:48:38;;;;;;;1.35;1.25;;;26.00;51.90;;;;;;5087701;28;20036;-66
2023/10/28 08:51:08;;;;;;;1.55;0.73;;;25.90;51.40;;;;;;5091713;28;20442;-67
2023/10/28 08:53:36;;;;;;;1.00;0.80;;;26.00;51.90;;;;;;5077029;28;20043;-67
2023/10/28 08:56:03;;;;;;;1.42;0.98;;;25.90;51.70;;;;;;5071165;28;20123;-67
2023/10/28 08:58:29;;;;;;;0.90;0.80;;;25.80;51.80;;;;;;5071481;28;20045;-67
2023/10/28 09:00:59;;;;;;;0.70;0.70;;;26.00;52.30;;;;;;5071270;28;20115;-67
2023/10/28 09:03:26;;;;;;;1.80;0.90;;;25.90;51.90;;;;;;5071513;28;20082;-67
2023/10/28 09:05:53;;;;;;;1.13;0.65;;;25.90;51.80;;;;;;5071251;28;20513;-67
2023/10/28 09:08:20;;;;;;;0.60;0.60;;;25.80;51.70;;;;;;5071226;28;20502;-67
2023/10/28 09:10:46;;;;;;;0.75;0.70;;;25.90;51.70;;;;;;5073197;28;20043;-66
2023/10/28 09:13:13;;;;;;;2.85;1.10;;;25.80;51.40;;;;;;5071976;28;20056;-67
2023/10/28 09:15:40;;;;;;;0.70;0.70;;;25.90;50.90;;;;;;5071059;28;20444;-66
2023/10/28 09:18:06;;;;;;;1.42;1.10;;;25.90;50.40;;;;;;5072434;28;20036;-66
2023/10/28 09:20:32;;;;;;;3.63;1.00;;;25.70;49.80;;;;;;5071128;28;20032;-67
2023/10/28 09:22:58;;;;;;;0.98;0.75;;;25.80;49.40;;;;;;5076712;28;20464;-66
2023/10/28 09:25:24;;;;;;;0.85;0.85;;;25.80;49.30;;;;;;5091119;28;20032;-67
2023/10/28 09:27:50;;;;;;;0.60;0.60;;;25.70;49.30;;;;;;5083398;28;20032;-66
2023/10/28 09:30:17;;;;;;;0.70;0.68;;;25.80;49.50;;;;;;5076692;28;20040;-67
2023/10/28 09:32:44;;;;;;;4.07;0.77;;;25.90;49.50;;;;;;5081567;28;20040;-66
2023/10/28 09:35:13;;;;;;;1.50;0.70;;;25.90;49.60;;;;;;5085190;28;20036;-69
2023/10/28 09:37:40;;;;;;;4.20;1.23;;;25.90;49.70;;;;;;5070786;28;20132;-71
2023/10/28 09:40:10;;;;;;;5.07;1.20;;;25.80;49.70;;;;;;5070715;28;20040;-68
2023/10/28 09:42:39;;;;;;;0.60;0.60;;;25.80;49.80;;;;;;5074209;28;20165;-68
2023/10/28 09:45:09;;;;;;;1.08;0.82;;;25.90;48.50;;;;;;5076263;28;20526;-67
2023/10/28 09:47:46;;;;;;;1.55;0.73;;;25.70;46.30;;;;;;5084889;28;20036;-67
2023/10/28 09:50:14;;;;;;;1.10;0.70;;;25.80;44.20;;;;;;5077828;28;20060;-68
2023/10/28 09:52:45;;;;;;;0.98;0.68;;;25.70;43.20;;;;;;5071616;28;20036;-68
2023/10/28 09:55:15;;;;;;;1.85;0.50;;;25.70;42.70;;;;;;5083556;28;20036;-68
2023/10/28 09:57:45;;;;;;;0.60;0.60;;;25.70;41.90;;;;;;5080303;28;20044;-68
2023/10/28 10:00:20;;;;;;;0.80;0.80;;;25.70;41.50;;;;;;5085950;28;20163;-65
2023/10/28 10:03:08;;;;;;;0.65;0.65;;;25.80;41.50;;;;;;5079179;28;20035;-64
2023/10/28 10:05:43;;;;;;;0.82;0.82;;;25.70;40.90;;;;;;5080681;28;20404;-65
2023/10/28 10:08:22;;;;;;;2.00;0.75;;;25.70;40.70;;;;;;5089401;28;20036;-64
2023/10/28 10:10:50;;;;;;;1.23;0.60;;;25.70;40.50;;;;;;5078932;28;20032;-65
2023/10/28 10:13:16;;;;;;;1.73;0.77;;;25.70;40.20;;;;;;5077554;28;20137;-65
2023/10/28 10:15:51;;;;;;;1.08;0.80;;;25.70;40.40;;;;;;5077482;28;20063;-66
2023/10/28 10:18:32;;;;;;;4.70;0.85;;;25.80;41.00;;;;;;5089504;28;20036;-67
2023/10/28 10:21:12;;;;;;;7.25;1.88;;;25.70;40.50;;;;;;5079065;28;20107;-66
2023/10/28 10:23:42;;;;;;;0.98;0.80;;;25.90;40.40;;;;;;5076650;28;20436;-67
2023/10/28 10:26:18;;;;;;;5.57;1.20;;;25.80;40.50;;;;;;5075008;28;20549;-67
2023/10/28 10:28:48;;;;;;;4.35;1.10;;;25.90;41.40;;;;;;5076947;28;20055;-67
2023/10/28 10:31:19;;;;;;;0.77;0.70;;;26.00;40.90;;;;;;5083784;28;20064;-67
2023/10/28 10:33:45;;;;;;;0.85;0.80;;;26.00;40.80;;;;;;5075767;28;20414;-67
2023/10/28 10:36:17;;;;;;;0.80;0.65;;;26.00;40.70;;;;;;5086375;28;20043;-67
2023/10/28 10:38:45;;;;;;;2.42;0.65;;;25.90;39.50;;;;;;5093392;28;20036;-64
2023/10/28 10:41:23;;;;;;;0.85;0.70;;;25.90;38.70;;;;;;5072405;28;20032;-65
2023/10/28 10:43:49;;;;;;;5.05;1.52;;;26.10;39.10;;;;;;5084048;28;20037;-66
2023/10/28 10:46:15;;;;;;;3.75;1.25;;;26.20;41.90;;;;;;5084286;28;20518;-66
2023/10/28 10:48:44;;;;;;;3.97;1.17;;;26.40;44.30;;;;;;5087604;28;20066;-64
2023/10/28 10:51:12;;;;;;;1.90;0.98;;;26.40;41.20;;;;;;5093590;28;20051;-65
2023/10/28 10:53:42;;;;;;;0.40;0.40;;;26.40;40.20;;;;;;5091971;28;20028;-64
2023/10/28 10:56:19;;;;;;;0.77;0.70;;;26.30;39.60;;;;;;5075790;28;20060;-65
2023/10/28 10:58:46;;;;;;;2.45;0.90;;;26.40;39.50;;;;;;5080332;28;20028;-65
2023/10/28 11:01:12;;;;;;;0.80;0.70;;;26.50;39.80;;;;;;5093548;28;20040;-66
2023/10/28 11:03:39;;;;;;;0.73;0.70;;;26.60;40.40;;;;;;5075687;28;20039;-66
2023/10/28 11:06:06;;;;;;;3.63;0.68;;;26.60;39.80;;;;;;5073804;28;20040;-64
2023/10/28 11:08:32;;;;;;;1.98;0.75;;;26.80;39.60;;;;;;5080577;28;20068;-66
2023/10/28 11:10:58;;;;;;;1.73;0.85;;;26.70;39.60;;;;;;5091439;28;20077;-67
2023/10/28 11:13:24;;;;;;;4.25;0.90;;;26.80;39.10;;;;;;5085077;28;20326;-68
2023/10/28 11:15:51;;;;;;;1.45;1.35;;;26.80;38.40;;;;;;5082274;28;20043;-67
2023/10/28 11:18:18;;;;;;;7.03;0.98;;;26.80;37.80;;;;;;5092297;28;20093;-66
2023/10/28 11:20:44;;;;;;;6.25;1.70;;;26.80;38.10;;;;;;5092932;28;20040;-67
2023/10/28 11:23:10;;;;;;;10.18;1.50;;;26.90;39.20;;;;;;5081831;28;20541;-65
2023/10/28 11:25:36;;;;;;;0.88;0.88;;;27.00;39.30;;;;;;5091816;28;20170;-67
2023/10/28 11:28:07;;;;;;;7.50;1.58;;;27.20;39.00;;;;;;5076852;28;20036;-65
2023/10/28 11:30:34;;;;;;;3.42;0.90;;;27.10;40.30;;;;;;5084971;28;20037;-66
2023/10/28 11:33:08;;;;;;;2.15;1.00;;;27.20;39.50;;;;;;5076800;28;20021;-67
2023/10/28 11:35:34;;;;;;;11.57;3.05;;;27.30;40.10;;;;;;5083279;28;20083;-67
2023/10/28 11:38:03;;;;;;;2.63;1.15;;;27.30;42.10;;;;;;5072838;28;20405;-67
2023/10/28 11:40:29;;;;;;;7.38;2.97;;;27.30;39.60;;;;;;5081377;28;20040;-66
2023/10/28 11:42:55;;;;;;;18.58;4.55;;;27.40;40.00;;;;;;5088414;28;20048;-65
2023/10/28 11:45:21;;;;;;;2.25;1.42;;;27.50;43.00;;;;;;5092011;28;20039;-65
2023/10/28 11:47:47;;;;;;;3.95;2.97;;;27.60;42.50;;;;;;5092314;28;20047;-66
2023/10/28 11:50:13;;;;;;;2.80;1.80;;;27.80;44.10;;;;;;5098694;28;20124;-66
2023/10/28 11:52:41;;;;;;;6.38;2.05;;;27.70;42.30;;;;;;5090038;28;20032;-66
2023/10/28 11:55:09;;;;;;;13.57;3.97;;;27.80;39.80;;;;;;5092176;28;20036;-67
2023/10/28 11:57:35;;;;;;;4.18;1.38;;;27.70;39.00;;;;;;5092575;28;20498;-66
2023/10/28 12:00:04;;;;;;;5.97;2.65;;;27.60;37.90;;;;;;5091490;28;20042;-66
2023/10/28 12:02:31;;;;;;;3.42;1.95;;;27.70;39.20;;;;;;5090055;28;20107;-66
2023/10/28 12:04:57;;;;;;;14.82;3.95;;;27.70;38.50;;;;;;5090030;28;20028;-67
2023/10/28 12:07:23;;;;;;;9.00;3.40;;;27.70;39.00;;;;;;5088638;28;20064;-67
2023/10/28 12:09:49;;;;;;;4.85;2.03;;;27.70;39.30;;;;;;5091428;28;20044;-67
2023/10/28 12:12:15;;;;;;;4.13;2.28;;;27.60;40.00;;;;;;5081136;28;20431;-67
2023/10/28 12:14:41;;;;;;;7.18;3.40;;;27.80;41.10;;;;;;5075655;28;20055;-67
2023/10/28 12:17:07;;;;;;;4.47;2.00;;;27.90;40.80;;;;;;5091330;28;20055;-66
2023/10/28 12:19:33;;;;;;;4.97;2.10;;;27.80;40.90;;;;;;5078540;28;20040;-66
2023/10/28 12:21:59;;;;;;;2.80;1.73;;;27.90;40.40;;;;;;5083795;28;20570;-67
2023/10/28 12:24:26;;;;;;;19.92;4.45;;;27.90;38.40;;;;;;5083102;28;20028;-67
2023/10/28 12:26:53;;;;;;;14.23;4.93;;;27.90;39.10;;;;;;5073391;28;20036;-67
2023/10/28 12:29:19;;;;;;;3.13;1.70;;;27.80;38.10;;;;;;5073574;28;20082;-67
2023/10/28 12:31:45;;;;;;;7.00;2.88;;;27.90;38.30;;;;;;5092349;28;20044;-67
2023/10/28 12:34:11;;;;;;;3.83;1.40;;;28.00;38.50;;;;;;5072461;28;20032;-65
2023/10/28 12:36:37;;;;;;;1.77;1.38;;;27.80;37.40;;;;;;5076132;28;20048;-67
2023/10/28 12:39:04;;;;;;;3.58;1.50;;;28.00;38.90;;;;;;5082788;28;20032;-68
2023/10/28 12:41:31;;;;;;;2.58;2.20;;;28.00;40.00;;;;;;5083253;28;20040;-68
2023/10/28 12:43:57;;;;;;;7.03;2.60;;;28.00;39.90;;;;;;5072467;28;20115;-66